Main page
METAR-TAF:

METAR-TAF

Airports :

TSTC Waco Airport

Waco, Texas, United States

latitude: 31-38-16N, longitude: 097-04-27W, elevation: 469 ft

Current weather observation

The report was made 48 minutes ago, at 15:55 UTC
Wind 9 mph from the Northeast
Temperature 81°F
Humidity 74%
Pressure 30.04 in. Hg
Visibility: 5 miles
Broken clouds at a height of 1900 ft
haze,

METAR: KCNW 191555Z 05008KT 5SM HZ BKN019 27/22 A3004

Time: 10:43 (16:43 UTC)


TAF: missing

Weather observations and forecasts of more than 4000 airports (METAR and TAF reports).

The available stations are represented by yellow and red dots on the map.

Hover mouse over dot to see the name of the station.

Then click to see weather observations and forecasts.

To change the map : click on the green buttons with a black cross to zoom in, on the green button with a dash to zoom out, or on the green arrows for adjacent maps.


METAR-TAF: